sensor_id;sensor_type;location;lat;lon;timestamp;temperature;humidity
78054;DHT22;67726;45.636;11.752;2024-02-26T00:02:23;8.60;99.90
78054;DHT22;67726;45.636;11.752;2024-02-26T00:04:49;8.70;99.90
78054;DHT22;67726;45.636;11.752;2024-02-26T00:07:16;8.70;99.90
78054;DHT22;67726;45.636;11.752;2024-02-26T00:09:41;8.60;99.90
78054;DHT22;67726;45.636;11.752;2024-02-26T00:12:07;8.50;99.90
78054;DHT22;67726;45.636;11.752;2024-02-26T00:14:33;8.60;99.90
78054;DHT22;67726;45.636;11.752;2024-02-26T00:16:59;8.60;99.90
78054;DHT22;67726;45.636;11.752;2024-02-26T00:19:25;8.50;99.90
78054;DHT22;67726;45.636;11.752;2024-02-26T00:21:50;8.40;99.90
78054;DHT22;67726;45.636;11.752;2024-02-26T00:24:16;8.40;99.90
78054;DHT22;67726;45.636;11.752;2024-02-26T00:26:42;8.60;99.90
78054;DHT22;67726;45.636;11.752;2024-02-26T00:29:07;8.50;99.90
78054;DHT22;67726;45.636;11.752;2024-02-26T00:31:33;8.40;99.90
78054;DHT22;67726;45.636;11.752;2024-02-26T00:33:58;8.40;99.90
78054;DHT22;67726;45.636;11.752;2024-02-26T00:36:24;8.20;99.90
78054;DHT22;67726;45.636;11.752;2024-02-26T00:38:50;8.40;99.90
78054;DHT22;67726;45.636;11.752;2024-02-26T00:41:22;8.20;99.90
78054;DHT22;67726;45.636;11.752;2024-02-26T00:43:48;8.20;99.90
78054;DHT22;67726;45.636;11.752;2024-02-26T00:46:14;8.40;99.90
78054;DHT22;67726;45.636;11.752;2024-02-26T00:48:40;8.30;99.90
78054;DHT22;67726;45.636;11.752;2024-02-26T00:51:05;8.30;99.90
78054;DHT22;67726;45.636;11.752;2024-02-26T00:53:32;8.30;99.90
78054;DHT22;67726;45.636;11.752;2024-02-26T00:55:57;8.20;99.90
78054;DHT22;67726;45.636;11.752;2024-02-26T00:58:27;8.10;99.90
78054;DHT22;67726;45.636;11.752;2024-02-26T01:00:52;8.20;99.90
78054;DHT22;67726;45.636;11.752;2024-02-26T01:03:18;8.10;99.90
78054;DHT22;67726;45.636;11.752;2024-02-26T01:05:44;8.00;99.90
78054;DHT22;67726;45.636;11.752;2024-02-26T01:08:10;8.00;99.90
78054;DHT22;67726;45.636;11.752;2024-02-26T01:10:36;7.80;99.90
78054;DHT22;67726;45.636;11.752;2024-02-26T01:13:01;7.80;99.90
78054;DHT22;67726;45.636;11.752;2024-02-26T01:15:27;7.90;99.90
78054;DHT22;67726;45.636;11.752;2024-02-26T01:17:53;7.80;99.90
78054;DHT22;67726;45.636;11.752;2024-02-26T01:20:19;7.60;99.90
78054;DHT22;67726;45.636;11.752;2024-02-26T01:22:44;7.60;99.90
78054;DHT22;67726;45.636;11.752;2024-02-26T01:25:10;7.90;99.90
78054;DHT22;67726;45.636;11.752;2024-02-26T01:27:36;7.70;99.90
78054;DHT22;67726;45.636;11.752;2024-02-26T01:30:03;7.90;99.90
78054;DHT22;67726;45.636;11.752;2024-02-26T01:32:30;7.80;99.90
78054;DHT22;67726;45.636;11.752;2024-02-26T01:34:56;7.90;99.90
78054;DHT22;67726;45.636;11.752;2024-02-26T01:37:22;7.90;99.90
78054;DHT22;67726;45.636;11.752;2024-02-26T01:39:47;8.00;99.90
78054;DHT22;67726;45.636;11.752;2024-02-26T01:42:13;8.00;99.90
78054;DHT22;67726;45.636;11.752;2024-02-26T01:44:39;7.80;99.90
78054;DHT22;67726;45.636;11.752;2024-02-26T01:47:11;8.10;99.90
78054;DHT22;67726;45.636;11.752;2024-02-26T01:49:37;8.10;99.90
78054;DHT22;67726;45.636;11.752;2024-02-26T01:52:06;8.10;99.90
78054;DHT22;67726;45.636;11.752;2024-02-26T01:54:35;8.20;99.90
78054;DHT22;67726;45.636;11.752;2024-02-26T01:57:03;8.30;99.90
78054;DHT22;67726;45.636;11.752;2024-02-26T01:59:29;8.20;99.90
78054;DHT22;67726;45.636;11.752;2024-02-26T02:01:58;8.30;99.90
78054;DHT22;67726;45.636;11.752;2024-02-26T02:04:24;8.20;99.90
78054;DHT22;67726;45.636;11.752;2024-02-26T02:06:50;8.30;99.90
78054;DHT22;67726;45.636;11.752;2024-02-26T02:09:16;8.30;99.90
78054;DHT22;67726;45.636;11.752;2024-02-26T02:11:41;8.40;99.90
78054;DHT22;67726;45.636;11.752;2024-02-26T02:14:07;8.40;99.90
78054;DHT22;67726;45.636;11.752;2024-02-26T02:16:33;8.40;99.90
78054;DHT22;67726;45.636;11.752;2024-02-26T02:18:59;8.40;99.90
78054;DHT22;67726;45.636;11.752;2024-02-26T02:21:25;8.30;99.90
78054;DHT22;67726;45.636;11.752;2024-02-26T02:23:50;8.30;99.90
78054;DHT22;67726;45.636;11.752;2024-02-26T02:26:16;8.30;99.90
78054;DHT22;67726;45.636;11.752;2024-02-26T02:28:43;8.20;99.90
78054;DHT22;67726;45.636;11.752;2024-02-26T02:31:10;8.20;99.90
78054;DHT22;67726;45.636;11.752;2024-02-26T02:33:36;8.20;99.90
78054;DHT22;67726;45.636;11.752;2024-02-26T02:36:02;8.20;99.90
78054;DHT22;67726;45.636;11.752;2024-02-26T02:38:28;8.00;99.90
78054;DHT22;67726;45.636;11.752;2024-02-26T02:40:55;8.00;99.90
78054;DHT22;67726;45.636;11.752;2024-02-26T02:43:21;8.00;99.90
78054;DHT22;67726;45.636;11.752;2024-02-26T02:45:46;8.00;99.90
78054;DHT22;67726;45.636;11.752;2024-02-26T02:48:12;8.10;99.90
78054;DHT22;67726;45.636;11.752;2024-02-26T02:50:38;8.00;99.90
78054;DHT22;67726;45.636;11.752;2024-02-26T02:53:04;8.00;99.90
78054;DHT22;67726;45.636;11.752;2024-02-26T02:55:30;7.90;99.90
78054;DHT22;67726;45.636;11.752;2024-02-26T02:57:55;7.90;99.90
78054;DHT22;67726;45.636;11.752;2024-02-26T03:00:21;7.60;99.90
78054;DHT22;67726;45.636;11.752;2024-02-26T03:02:50;7.60;99.90
78054;DHT22;67726;45.636;11.752;2024-02-26T03:05:15;7.60;99.90
78054;DHT22;67726;45.636;11.752;2024-02-26T03:07:41;7.60;99.90
78054;DHT22;67726;45.636;11.752;2024-02-26T03:10:07;7.70;99.90
78054;DHT22;67726;45.636;11.752;2024-02-26T03:12:33;7.60;99.90
78054;DHT22;67726;45.636;11.752;2024-02-26T03:14:59;7.50;99.90
78054;DHT22;67726;45.636;11.752;2024-02-26T03:17:28;7.40;99.90
78054;DHT22;67726;45.636;11.752;2024-02-26T03:19:54;7.50;99.90
78054;DHT22;67726;45.636;11.752;2024-02-26T03:22:20;7.60;99.90
78054;DHT22;67726;45.636;11.752;2024-02-26T03:24:47;7.40;99.90
78054;DHT22;67726;45.636;11.752;2024-02-26T03:27:12;7.50;99.90
78054;DHT22;67726;45.636;11.752;2024-02-26T03:29:38;7.60;99.90
78054;DHT22;67726;45.636;11.752;2024-02-26T03:32:07;7.40;99.90
78054;DHT22;67726;45.636;11.752;2024-02-26T03:34:33;7.50;99.90
78054;DHT22;67726;45.636;11.752;2024-02-26T03:37:01;7.40;99.90
78054;DHT22;67726;45.636;11.752;2024-02-26T03:39:27;7.30;99.90
78054;DHT22;67726;45.636;11.752;2024-02-26T03:41:53;7.30;99.90
78054;DHT22;67726;45.636;11.752;2024-02-26T03:44:19;7.20;99.90
78054;DHT22;67726;45.636;11.752;2024-02-26T03:46:45;7.20;99.90
78054;DHT22;67726;45.636;11.752;2024-02-26T03:49:11;7.30;99.90
78054;DHT22;67726;45.636;11.752;2024-02-26T03:51:37;7.30;99.90
78054;DHT22;67726;45.636;11.752;2024-02-26T03:54:03;7.20;99.90
78054;DHT22;67726;45.636;11.752;2024-02-26T03:56:28;7.20;99.90
78054;DHT22;67726;45.636;11.752;2024-02-26T03:58:54;7.20;99.90
78054;DHT22;67726;45.636;11.752;2024-02-26T04:01:20;7.10;99.90
78054;DHT22;67726;45.636;11.752;2024-02-26T04:03:45;6.90;99.90
78054;DHT22;67726;45.636;11.752;2024-02-26T04:06:11;7.00;99.90
78054;DHT22;67726;45.636;11.752;2024-02-26T04:08:40;7.00;99.90
78054;DHT22;67726;45.636;11.752;2024-02-26T04:11:06;6.90;99.90
78054;DHT22;67726;45.636;11.752;2024-02-26T04:13:36;6.80;99.90
78054;DHT22;67726;45.636;11.752;2024-02-26T04:16:06;6.70;99.90
78054;DHT22;67726;45.636;11.752;2024-02-26T04:18:32;6.70;99.90
78054;DHT22;67726;45.636;11.752;2024-02-26T04:20:58;6.70;99.90
78054;DHT22;67726;45.636;11.752;2024-02-26T04:23:24;6.60;99.90
78054;DHT22;67726;45.636;11.752;2024-02-26T04:25:50;6.60;99.90
78054;DHT22;67726;45.636;11.752;2024-02-26T04:28:15;6.50;99.90
78054;DHT22;67726;45.636;11.752;2024-02-26T04:30:41;6.70;99.90
78054;DHT22;67726;45.636;11.752;2024-02-26T04:33:07;6.40;99.90
78054;DHT22;67726;45.636;11.752;2024-02-26T04:35:33;6.60;99.90
78054;DHT22;67726;45.636;11.752;2024-02-26T04:38:00;6.50;99.90
78054;DHT22;67726;45.636;11.752;2024-02-26T04:40:26;6.60;99.90
78054;DHT22;67726;45.636;11.752;2024-02-26T04:42:52;6.80;99.90
78054;DHT22;67726;45.636;11.752;2024-02-26T04:45:17;6.80;99.90
78054;DHT22;67726;45.636;11.752;2024-02-26T04:47:43;6.70;99.90
78054;DHT22;67726;45.636;11.752;2024-02-26T04:50:09;6.70;99.90
78054;DHT22;67726;45.636;11.752;2024-02-26T04:52:34;6.60;99.90
78054;DHT22;67726;45.636;11.752;2024-02-26T04:55:01;6.60;99.90
78054;DHT22;67726;45.636;11.752;2024-02-26T04:57:28;6.70;99.90
78054;DHT22;67726;45.636;11.752;2024-02-26T04:59:53;6.70;99.90
78054;DHT22;67726;45.636;11.752;2024-02-26T05:02:19;6.70;99.90
78054;DHT22;67726;45.636;11.752;2024-02-26T05:04:45;6.70;99.90
78054;DHT22;67726;45.636;11.752;2024-02-26T05:07:10;6.80;99.90
78054;DHT22;67726;45.636;11.752;2024-02-26T05:09:37;6.90;99.90
78054;DHT22;67726;45.636;11.752;2024-02-26T05:12:03;6.80;99.90
78054;DHT22;67726;45.636;11.752;2024-02-26T05:14:29;6.80;99.90
78054;DHT22;67726;45.636;11.752;2024-02-26T05:16:55;7.00;99.90
78054;DHT22;67726;45.636;11.752;2024-02-26T05:19:21;6.70;99.90
78054;DHT22;67726;45.636;11.752;2024-02-26T05:21:47;6.90;99.90
78054;DHT22;67726;45.636;11.752;2024-02-26T05:24:14;6.90;99.90
78054;DHT22;67726;45.636;11.752;2024-02-26T05:26:43;7.20;99.90
78054;DHT22;67726;45.636;11.752;2024-02-26T05:29:08;7.10;99.90
78054;DHT22;67726;45.636;11.752;2024-02-26T05:31:34;7.10;99.90
78054;DHT22;67726;45.636;11.752;2024-02-26T05:34:00;7.00;99.90
78054;DHT22;67726;45.636;11.752;2024-02-26T05:36:25;7.10;99.90
78054;DHT22;67726;45.636;11.752;2024-02-26T05:38:51;7.10;99.90
78054;DHT22;67726;45.636;11.752;2024-02-26T05:41:17;7.10;99.90
78054;DHT22;67726;45.636;11.752;2024-02-26T05:43:51;7.20;99.90
78054;DHT22;67726;45.636;11.752;2024-02-26T05:46:18;7.20;99.90
78054;DHT22;67726;45.636;11.752;2024-02-26T05:48:44;7.30;99.90
78054;DHT22;67726;45.636;11.752;2024-02-26T05:51:10;7.40;99.90
78054;DHT22;67726;45.636;11.752;2024-02-26T05:53:36;7.40;99.90
78054;DHT22;67726;45.636;11.752;2024-02-26T05:56:02;7.30;99.90
78054;DHT22;67726;45.636;11.752;2024-02-26T05:58:27;7.40;99.90
78054;DHT22;67726;45.636;11.752;2024-02-26T06:00:53;7.40;99.90
78054;DHT22;67726;45.636;11.752;2024-02-26T06:03:18;7.50;99.90
78054;DHT22;67726;45.636;11.752;2024-02-26T06:05:44;7.50;99.90
78054;DHT22;67726;45.636;11.752;2024-02-26T06:08:10;7.40;99.90
78054;DHT22;67726;45.636;11.752;2024-02-26T06:10:35;7.60;99.90
78054;DHT22;67726;45.636;11.752;2024-02-26T06:13:01;7.60;99.90
78054;DHT22;67726;45.636;11.752;2024-02-26T06:15:27;7.60;99.90
78054;DHT22;67726;45.636;11.752;2024-02-26T06:17:52;7.70;99.90
78054;DHT22;67726;45.636;11.752;2024-02-26T06:20:18;7.80;99.90
78054;DHT22;67726;45.636;11.752;2024-02-26T06:22:44;7.90;99.90
78054;DHT22;67726;45.636;11.752;2024-02-26T06:28:32;7.80;99.90
78054;DHT22;67726;45.636;11.752;2024-02-26T06:30:59;7.90;99.90
78054;DHT22;67726;45.636;11.752;2024-02-26T06:33:25;8.00;99.90
78054;DHT22;67726;45.636;11.752;2024-02-26T06:35:50;8.00;99.90
78054;DHT22;67726;45.636;11.752;2024-02-26T06:40:46;8.10;99.90
78054;DHT22;67726;45.636;11.752;2024-02-26T06:43:11;8.20;99.90
78054;DHT22;67726;45.636;11.752;2024-02-26T06:45:37;8.20;99.90
78054;DHT22;67726;45.636;11.752;2024-02-26T06:48:11;8.30;99.90
78054;DHT22;67726;45.636;11.752;2024-02-26T06:53:12;8.40;99.90
78054;DHT22;67726;45.636;11.752;2024-02-26T06:55:38;8.60;99.90
78054;DHT22;67726;45.636;11.752;2024-02-26T06:58:05;8.70;99.90
78054;DHT22;67726;45.636;11.752;2024-02-26T07:00:31;8.80;99.90
78054;DHT22;67726;45.636;11.752;2024-02-26T07:02:57;8.90;99.90
78054;DHT22;67726;45.636;11.752;2024-02-26T07:05:23;9.00;99.90
78054;DHT22;67726;45.636;11.752;2024-02-26T07:07:49;9.00;99.90
78054;DHT22;67726;45.636;11.752;2024-02-26T07:10:15;9.10;99.90
78054;DHT22;67726;45.636;11.752;2024-02-26T07:12:40;9.20;99.90
78054;DHT22;67726;45.636;11.752;2024-02-26T07:15:07;9.40;99.90
78054;DHT22;67726;45.636;11.752;2024-02-26T07:17:33;9.40;99.90
78054;DHT22;67726;45.636;11.752;2024-02-26T07:19:59;9.50;99.90
78054;DHT22;67726;45.636;11.752;2024-02-26T07:22:25;9.60;99.90
78054;DHT22;67726;45.636;11.752;2024-02-26T07:25:00;9.40;99.90
78054;DHT22;67726;45.636;11.752;2024-02-26T07:27:26;9.50;99.90
78054;DHT22;67726;45.636;11.752;2024-02-26T07:29:51;9.50;99.90
78054;DHT22;67726;45.636;11.752;2024-02-26T07:32:17;9.50;99.90
78054;DHT22;67726;45.636;11.752;2024-02-26T07:34:43;9.60;99.90
78054;DHT22;67726;45.636;11.752;2024-02-26T07:37:10;9.50;99.90
78054;DHT22;67726;45.636;11.752;2024-02-26T07:39:36;9.50;99.90
78054;DHT22;67726;45.636;11.752;2024-02-26T07:42:02;9.60;99.90
78054;DHT22;67726;45.636;11.752;2024-02-26T07:44:28;9.60;99.90
78054;DHT22;67726;45.636;11.752;2024-02-26T07:46:54;9.60;99.90
78054;DHT22;67726;45.636;11.752;2024-02-26T07:49:20;9.70;99.90
78054;DHT22;67726;45.636;11.752;2024-02-26T07:51:45;9.70;99.90
78054;DHT22;67726;45.636;11.752;2024-02-26T07:54:11;9.70;99.90
78054;DHT22;67726;45.636;11.752;2024-02-26T07:56:37;9.60;99.90
78054;DHT22;67726;45.636;11.752;2024-02-26T07:59:02;9.70;99.90
78054;DHT22;67726;45.636;11.752;2024-02-26T08:01:28;9.70;99.90
78054;DHT22;67726;45.636;11.752;2024-02-26T08:03:54;9.70;99.90
78054;DHT22;67726;45.636;11.752;2024-02-26T08:06:23;9.90;99.90
78054;DHT22;67726;45.636;11.752;2024-02-26T08:08:49;10.00;99.90
78054;DHT22;67726;45.636;11.752;2024-02-26T08:11:15;9.90;99.90
78054;DHT22;67726;45.636;11.752;2024-02-26T08:13:45;10.00;99.90
78054;DHT22;67726;45.636;11.752;2024-02-26T08:16:11;10.00;99.90
78054;DHT22;67726;45.636;11.752;2024-02-26T08:18:37;10.10;99.90
78054;DHT22;67726;45.636;11.752;2024-02-26T08:21:03;10.20;99.90
78054;DHT22;67726;45.636;11.752;2024-02-26T08:23:28;10.10;99.90
78054;DHT22;67726;45.636;11.752;2024-02-26T08:25:54;10.10;99.90
78054;DHT22;67726;45.636;11.752;2024-02-26T08:28:20;10.20;99.90
78054;DHT22;67726;45.636;11.752;2024-02-26T08:30:46;10.20;99.90
78054;DHT22;67726;45.636;11.752;2024-02-26T08:33:11;10.40;99.90
78054;DHT22;67726;45.636;11.752;2024-02-26T08:35:38;10.40;99.90
78054;DHT22;67726;45.636;11.752;2024-02-26T08:38:04;10.40;99.90
78054;DHT22;67726;45.636;11.752;2024-02-26T08:40:30;10.50;99.90
78054;DHT22;67726;45.636;11.752;2024-02-26T08:42:55;10.40;99.90
78054;DHT22;67726;45.636;11.752;2024-02-26T08:45:21;10.50;99.90
78054;DHT22;67726;45.636;11.752;2024-02-26T08:47:47;10.60;99.90
78054;DHT22;67726;45.636;11.752;2024-02-26T08:50:14;10.60;99.90
78054;DHT22;67726;45.636;11.752;2024-02-26T08:52:40;10.80;99.90
78054;DHT22;67726;45.636;11.752;2024-02-26T08:55:06;10.80;99.90
78054;DHT22;67726;45.636;11.752;2024-02-26T08:57:34;10.90;99.90
78054;DHT22;67726;45.636;11.752;2024-02-26T09:00:03;10.90;99.90
78054;DHT22;67726;45.636;11.752;2024-02-26T09:02:29;11.00;99.90
78054;DHT22;67726;45.636;11.752;2024-02-26T09:04:55;11.00;99.90
78054;DHT22;67726;45.636;11.752;2024-02-26T09:07:22;11.10;99.90
78054;DHT22;67726;45.636;11.752;2024-02-26T09:09:48;11.10;99.90
78054;DHT22;67726;45.636;11.752;2024-02-26T09:12:13;11.20;99.90
78054;DHT22;67726;45.636;11.752;2024-02-26T09:14:39;11.30;99.90
78054;DHT22;67726;45.636;11.752;2024-02-26T09:17:05;11.40;99.90
78054;DHT22;67726;45.636;11.752;2024-02-26T09:19:32;11.40;99.90
78054;DHT22;67726;45.636;11.752;2024-02-26T09:21:58;11.50;99.90
78054;DHT22;67726;45.636;11.752;2024-02-26T09:24:24;11.70;99.90
78054;DHT22;67726;45.636;11.752;2024-02-26T09:26:50;11.80;99.90
78054;DHT22;67726;45.636;11.752;2024-02-26T09:29:16;11.90;99.90
78054;DHT22;67726;45.636;11.752;2024-02-26T09:31:42;12.30;99.90
78054;DHT22;67726;45.636;11.752;2024-02-26T09:34:08;12.30;99.90
78054;DHT22;67726;45.636;11.752;2024-02-26T09:36:34;12.40;99.90
78054;DHT22;67726;45.636;11.752;2024-02-26T09:38:59;12.60;99.90
78054;DHT22;67726;45.636;11.752;2024-02-26T09:41:28;12.70;99.80
78054;DHT22;67726;45.636;11.752;2024-02-26T09:43:57;12.80;99.70
78054;DHT22;67726;45.636;11.752;2024-02-26T09:46:25;12.90;99.90
78054;DHT22;67726;45.636;11.752;2024-02-26T09:48:50;13.00;99.70
78054;DHT22;67726;45.636;11.752;2024-02-26T09:51:16;12.90;98.50
78054;DHT22;67726;45.636;11.752;2024-02-26T09:53:44;13.00;97.20
78054;DHT22;67726;45.636;11.752;2024-02-26T09:56:12;13.00;98.60
78054;DHT22;67726;45.636;11.752;2024-02-26T09:58:41;13.10;99.40
78054;DHT22;67726;45.636;11.752;2024-02-26T10:01:16;13.10;98.70
78054;DHT22;67726;45.636;11.752;2024-02-26T10:03:43;13.00;97.10
78054;DHT22;67726;45.636;11.752;2024-02-26T10:06:11;13.10;97.70
78054;DHT22;67726;45.636;11.752;2024-02-26T10:08:37;13.10;96.60
78054;DHT22;67726;45.636;11.752;2024-02-26T10:11:11;13.30;97.30
78054;DHT22;67726;45.636;11.752;2024-02-26T10:13:38;13.20;96.80
78054;DHT22;67726;45.636;11.752;2024-02-26T10:16:04;13.20;96.90
78054;DHT22;67726;45.636;11.752;2024-02-26T10:18:47;13.30;97.90
78054;DHT22;67726;45.636;11.752;2024-02-26T10:21:13;13.20;99.10
78054;DHT22;67726;45.636;11.752;2024-02-26T10:23:39;13.00;97.50
78054;DHT22;67726;45.636;11.752;2024-02-26T10:29:01;12.80;97.80
78054;DHT22;67726;45.636;11.752;2024-02-26T10:31:27;12.90;99.00
78054;DHT22;67726;45.636;11.752;2024-02-26T10:33:55;12.90;97.90
78054;DHT22;67726;45.636;11.752;2024-02-26T10:36:22;12.90;98.00
78054;DHT22;67726;45.636;11.752;2024-02-26T10:38:47;12.90;98.50
78054;DHT22;67726;45.636;11.752;2024-02-26T10:41:14;13.00;98.20
78054;DHT22;67726;45.636;11.752;2024-02-26T10:43:42;12.90;97.70
78054;DHT22;67726;45.636;11.752;2024-02-26T10:46:09;13.00;96.90
78054;DHT22;67726;45.636;11.752;2024-02-26T10:48:35;12.90;97.30
78054;DHT22;67726;45.636;11.752;2024-02-26T10:51:01;13.00;97.50
78054;DHT22;67726;45.636;11.752;2024-02-26T10:53:29;13.00;98.30
78054;DHT22;67726;45.636;11.752;2024-02-26T10:56:01;13.10;98.00
78054;DHT22;67726;45.636;11.752;2024-02-26T10:58:27;13.30;96.60
78054;DHT22;67726;45.636;11.752;2024-02-26T11:00:56;13.40;97.30
78054;DHT22;67726;45.636;11.752;2024-02-26T11:03:22;13.50;98.40
78054;DHT22;67726;45.636;11.752;2024-02-26T11:05:49;13.60;99.70
78054;DHT22;67726;45.636;11.752;2024-02-26T11:08:18;13.50;96.10
78054;DHT22;67726;45.636;11.752;2024-02-26T11:10:47;13.60;96.10
78054;DHT22;67726;45.636;11.752;2024-02-26T11:13:16;13.60;98.50
78054;DHT22;67726;45.636;11.752;2024-02-26T11:15:46;13.80;96.50
78054;DHT22;67726;45.636;11.752;2024-02-26T11:18:14;14.00;96.60
78054;DHT22;67726;45.636;11.752;2024-02-26T11:20:40;14.20;96.00
78054;DHT22;67726;45.636;11.752;2024-02-26T11:23:07;14.30;95.90
78054;DHT22;67726;45.636;11.752;2024-02-26T11:25:35;14.40;95.30
78054;DHT22;67726;45.636;11.752;2024-02-26T11:28:04;14.60;95.50
78054;DHT22;67726;45.636;11.752;2024-02-26T11:30:33;14.50;94.50
78054;DHT22;67726;45.636;11.752;2024-02-26T11:33:09;14.50;96.10
78054;DHT22;67726;45.636;11.752;2024-02-26T11:35:36;14.40;95.80
78054;DHT22;67726;45.636;11.752;2024-02-26T11:38:02;14.30;94.40
78054;DHT22;67726;45.636;11.752;2024-02-26T11:40:29;14.00;93.80
78054;DHT22;67726;45.636;11.752;2024-02-26T11:42:56;14.00;95.00
78054;DHT22;67726;45.636;11.752;2024-02-26T11:48:24;13.80;96.40
78054;DHT22;67726;45.636;11.752;2024-02-26T11:50:52;13.80;96.30
78054;DHT22;67726;45.636;11.752;2024-02-26T11:53:25;13.90;95.20
78054;DHT22;67726;45.636;11.752;2024-02-26T11:56:20;13.80;97.10
78054;DHT22;67726;45.636;11.752;2024-02-26T11:58:53;13.60;96.00
78054;DHT22;67726;45.636;11.752;2024-02-26T12:04:28;13.60;97.90
78054;DHT22;67726;45.636;11.752;2024-02-26T12:06:58;13.50;96.80
78054;DHT22;67726;45.636;11.752;2024-02-26T12:09:40;13.50;95.90
78054;DHT22;67726;45.636;11.752;2024-02-26T12:12:10;13.50;97.50
78054;DHT22;67726;45.636;11.752;2024-02-26T12:14:41;13.60;95.80
78054;DHT22;67726;45.636;11.752;2024-02-26T12:17:20;13.70;95.70
78054;DHT22;67726;45.636;11.752;2024-02-26T12:19:46;13.80;96.00
78054;DHT22;67726;45.636;11.752;2024-02-26T12:22:15;13.90;97.00
78054;DHT22;67726;45.636;11.752;2024-02-26T12:24:42;14.00;98.40
78054;DHT22;67726;45.636;11.752;2024-02-26T12:27:08;13.90;94.90
78054;DHT22;67726;45.636;11.752;2024-02-26T12:29:33;13.80;95.70
78054;DHT22;67726;45.636;11.752;2024-02-26T12:31:59;13.60;97.00
78054;DHT22;67726;45.636;11.752;2024-02-26T12:34:25;13.60;97.50
78054;DHT22;67726;45.636;11.752;2024-02-26T12:36:53;13.60;97.20
78054;DHT22;67726;45.636;11.752;2024-02-26T12:39:19;13.70;97.20
78054;DHT22;67726;45.636;11.752;2024-02-26T12:41:46;13.90;97.20
78054;DHT22;67726;45.636;11.752;2024-02-26T12:44:24;13.90;96.60
78054;DHT22;67726;45.636;11.752;2024-02-26T12:46:50;14.00;97.20
78054;DHT22;67726;45.636;11.752;2024-02-26T12:49:16;14.00;97.80
78054;DHT22;67726;45.636;11.752;2024-02-26T12:51:44;14.10;96.10
78054;DHT22;67726;45.636;11.752;2024-02-26T12:54:10;14.20;96.60
78054;DHT22;67726;45.636;11.752;2024-02-26T12:56:36;14.10;94.20
78054;DHT22;67726;45.636;11.752;2024-02-26T12:59:02;14.10;96.70
78054;DHT22;67726;45.636;11.752;2024-02-26T13:01:29;14.10;94.20
78054;DHT22;67726;45.636;11.752;2024-02-26T13:03:55;14.30;93.60
78054;DHT22;67726;45.636;11.752;2024-02-26T13:06:22;14.40;93.90
78054;DHT22;67726;45.636;11.752;2024-02-26T13:08:48;14.30;92.60
78054;DHT22;67726;45.636;11.752;2024-02-26T13:11:14;14.20;92.10
78054;DHT22;67726;45.636;11.752;2024-02-26T13:13:40;14.20;93.00
78054;DHT22;67726;45.636;11.752;2024-02-26T13:16:09;14.20;91.50
78054;DHT22;67726;45.636;11.752;2024-02-26T13:18:34;14.20;91.50
78054;DHT22;67726;45.636;11.752;2024-02-26T13:23:34;14.20;91.00
78054;DHT22;67726;45.636;11.752;2024-02-26T13:26:00;14.10;91.20
78054;DHT22;67726;45.636;11.752;2024-02-26T13:28:26;14.10;93.10
78054;DHT22;67726;45.636;11.752;2024-02-26T13:30:57;14.00;92.90
78054;DHT22;67726;45.636;11.752;2024-02-26T13:33:23;14.10;91.60
78054;DHT22;67726;45.636;11.752;2024-02-26T13:35:50;14.10;96.30
78054;DHT22;67726;45.636;11.752;2024-02-26T13:38:16;14.00;91.70
78054;DHT22;67726;45.636;11.752;2024-02-26T13:40:42;13.90;91.80
78054;DHT22;67726;45.636;11.752;2024-02-26T13:43:08;13.80;94.40
78054;DHT22;67726;45.636;11.752;2024-02-26T13:45:37;13.80;92.10
78054;DHT22;67726;45.636;11.752;2024-02-26T13:48:05;13.70;92.00
78054;DHT22;67726;45.636;11.752;2024-02-26T13:50:31;13.60;93.50
78054;DHT22;67726;45.636;11.752;2024-02-26T13:52:57;13.70;95.90
78054;DHT22;67726;45.636;11.752;2024-02-26T13:55:26;13.60;94.60
78054;DHT22;67726;45.636;11.752;2024-02-26T13:57:54;13.50;93.60
78054;DHT22;67726;45.636;11.752;2024-02-26T14:00:20;13.30;96.00
78054;DHT22;67726;45.636;11.752;2024-02-26T14:02:46;13.30;94.70
78054;DHT22;67726;45.636;11.752;2024-02-26T14:05:12;13.30;97.80
78054;DHT22;67726;45.636;11.752;2024-02-26T14:07:38;13.20;95.50
78054;DHT22;67726;45.636;11.752;2024-02-26T14:10:04;13.20;96.70
78054;DHT22;67726;45.636;11.752;2024-02-26T14:12:30;13.10;96.50
78054;DHT22;67726;45.636;11.752;2024-02-26T14:14:56;13.20;96.60
78054;DHT22;67726;45.636;11.752;2024-02-26T14:17:24;13.10;96.70
78054;DHT22;67726;45.636;11.752;2024-02-26T14:19:50;13.00;96.70
78054;DHT22;67726;45.636;11.752;2024-02-26T14:22:15;13.00;96.40
78054;DHT22;67726;45.636;11.752;2024-02-26T14:24:41;13.00;96.90
78054;DHT22;67726;45.636;11.752;2024-02-26T14:27:12;12.90;96.60
78054;DHT22;67726;45.636;11.752;2024-02-26T14:29:45;12.80;97.90
78054;DHT22;67726;45.636;11.752;2024-02-26T14:32:11;12.70;98.40
78054;DHT22;67726;45.636;11.752;2024-02-26T14:34:37;12.70;99.20
78054;DHT22;67726;45.636;11.752;2024-02-26T14:37:02;12.60;99.90
78054;DHT22;67726;45.636;11.752;2024-02-26T14:39:28;12.50;99.90
78054;DHT22;67726;45.636;11.752;2024-02-26T14:41:57;12.40;99.90
78054;DHT22;67726;45.636;11.752;2024-02-26T14:44:23;12.10;99.90
78054;DHT22;67726;45.636;11.752;2024-02-26T14:46:50;11.80;99.90
78054;DHT22;67726;45.636;11.752;2024-02-26T14:49:16;11.60;99.90
78054;DHT22;67726;45.636;11.752;2024-02-26T14:51:43;11.30;99.90
78054;DHT22;67726;45.636;11.752;2024-02-26T14:54:11;11.20;99.90
78054;DHT22;67726;45.636;11.752;2024-02-26T14:56:36;11.00;99.90
78054;DHT22;67726;45.636;11.752;2024-02-26T14:59:02;10.80;99.90
78054;DHT22;67726;45.636;11.752;2024-02-26T15:01:28;10.80;99.90
78054;DHT22;67726;45.636;11.752;2024-02-26T15:03:54;10.70;99.90
78054;DHT22;67726;45.636;11.752;2024-02-26T15:06:20;10.60;99.90
78054;DHT22;67726;45.636;11.752;2024-02-26T15:08:46;10.60;99.90
78054;DHT22;67726;45.636;11.752;2024-02-26T15:11:12;10.60;99.90
78054;DHT22;67726;45.636;11.752;2024-02-26T15:13:37;10.50;99.90
78054;DHT22;67726;45.636;11.752;2024-02-26T15:16:03;10.60;99.90
78054;DHT22;67726;45.636;11.752;2024-02-26T15:18:29;10.50;99.90
78054;DHT22;67726;45.636;11.752;2024-02-26T15:20:55;10.50;99.90
78054;DHT22;67726;45.636;11.752;2024-02-26T15:23:20;10.60;99.90
78054;DHT22;67726;45.636;11.752;2024-02-26T15:25:46;10.50;99.90
78054;DHT22;67726;45.636;11.752;2024-02-26T15:28:12;10.40;99.90
78054;DHT22;67726;45.636;11.752;2024-02-26T15:30:40;10.40;99.90
78054;DHT22;67726;45.636;11.752;2024-02-26T15:33:06;10.40;99.90
78054;DHT22;67726;45.636;11.752;2024-02-26T15:35:31;10.40;99.90
78054;DHT22;67726;45.636;11.752;2024-02-26T15:37:57;10.50;99.90
78054;DHT22;67726;45.636;11.752;2024-02-26T15:40:23;10.40;99.90